Time;durP1;ratioP1;P1;durP2;ratioP2;P2;SDS_P1;SDS_P2;PMS_P1;PMS_P2;Temp;Humidity;BMP_temperature;BMP_pressure;BME280_temperature;BME280_humidity;BME280_pressure;Samples;Min_cycle;Max_cycle;Signal;HPM_P1;HPM_P2
2021/12/02 00:01:32;;;;;;;;;;;5.00;99.90;;;;;;4987749;28;20153;-75
2021/12/02 00:03:59;;;;;;;;;;;5.10;99.90;;;;;;4987544;28;20154;-74
2021/12/02 00:06:26;;;;;;;;;;;5.00;99.90;;;;;;4985998;28;21090;-75
2021/12/02 00:08:54;;;;;;;;;;;5.00;99.90;;;;;;4986201;28;20157;-75
2021/12/02 00:11:23;;;;;;;;;;;5.00;99.90;;;;;;4995437;28;21114;-75
2021/12/02 00:13:53;;;;;;;;;;;5.00;99.90;;;;;;4986658;28;20082;-75
2021/12/02 00:16:27;;;;;;;;;;;5.00;99.90;;;;;;4992738;28;20124;-74
2021/12/02 00:21:44;;;;;;;;;;;4.90;99.90;;;;;;4987685;28;21038;-75
2021/12/02 00:24:14;;;;;;;;;;;4.90;99.90;;;;;;4985689;28;20199;-75
2021/12/02 00:26:42;;;;;;;;;;;4.90;99.90;;;;;;4985620;28;20238;-75
2021/12/02 00:29:09;;;;;;;;;;;5.00;99.90;;;;;;4986754;28;20072;-76
2021/12/02 00:31:37;;;;;;;;;;;4.90;99.90;;;;;;4986670;28;20070;-73
2021/12/02 00:34:05;;;;;;;;;;;4.90;99.90;;;;;;4987639;28;20067;-75
2021/12/02 00:36:34;;;;;;;;;;;4.90;99.90;;;;;;4985635;28;20060;-74
2021/12/02 00:39:03;;;;;;;;;;;4.90;99.90;;;;;;4986255;28;20069;-74
2021/12/02 00:41:30;;;;;;;;;;;4.90;99.90;;;;;;4989707;28;20068;-74
2021/12/02 00:43:59;;;;;;;;;;;4.90;99.90;;;;;;4989792;28;21066;-74
2021/12/02 00:46:27;;;;;;;;;;;4.90;99.90;;;;;;4987348;28;20068;-74
2021/12/02 00:48:54;;;;;;;;;;;4.90;99.90;;;;;;4988105;28;20081;-75
2021/12/02 00:51:22;;;;;;;;;;;4.90;99.90;;;;;;4985257;28;20157;-75
2021/12/02 00:53:53;;;;;;;;;;;4.90;99.90;;;;;;4985657;28;21015;-75
2021/12/02 00:56:22;;;;;;;;;;;4.90;99.90;;;;;;4982880;28;21265;-75
2021/12/02 00:58:50;;;;;;;;;;;4.90;99.90;;;;;;4982326;28;20077;-74
2021/12/02 01:01:19;;;;;;;;;;;4.90;99.90;;;;;;4986224;28;21109;-75
2021/12/02 01:03:48;;;;;;;;;;;4.90;99.90;;;;;;4984921;28;20170;-74
2021/12/02 01:06:15;;;;;;;;;;;4.90;99.90;;;;;;4997616;28;20077;-75
2021/12/02 01:08:43;;;;;;;;;;;4.90;99.90;;;;;;4971640;28;20108;-75
2021/12/02 01:11:10;;;;;;;;;;;4.90;99.90;;;;;;4986563;28;20179;-74
2021/12/02 01:13:37;;;;;;;;;;;4.90;99.90;;;;;;4988755;28;20082;-75
2021/12/02 01:16:05;;;;;;;;;;;4.90;99.90;;;;;;4983155;28;20085;-75
2021/12/02 01:18:34;;;;;;;;;;;4.90;99.90;;;;;;4986732;28;20117;-75
2021/12/02 01:21:02;;;;;;;;;;;4.90;99.90;;;;;;4983096;28;20179;-75
2021/12/02 01:23:30;;;;;;;;;;;4.90;99.90;;;;;;4985759;28;21054;-75
2021/12/02 01:25:59;;;;;;;;;;;4.90;99.90;;;;;;4986430;28;20190;-74
2021/12/02 01:28:26;;;;;;;;;;;4.90;99.90;;;;;;4985584;28;20101;-75
2021/12/02 01:30:55;;;;;;;;;;;5.00;99.90;;;;;;4984683;28;20084;-74
2021/12/02 01:33:22;;;;;;;;;;;4.90;99.90;;;;;;4985356;28;20084;-74
2021/12/02 01:35:52;;;;;;;;;;;5.00;99.90;;;;;;4987194;28;20161;-74
2021/12/02 01:38:19;;;;;;;;;;;4.90;99.90;;;;;;4992913;28;20097;-74
2021/12/02 01:40:46;;;;;;;;;;;4.90;99.90;;;;;;4985756;28;21172;-74
2021/12/02 01:43:16;;;;;;;;;;;5.00;99.90;;;;;;4982689;28;20216;-74
2021/12/02 01:45:43;;;;;;;;;;;5.00;99.90;;;;;;4988355;28;21270;-75
2021/12/02 01:48:11;;;;;;;;;;;4.90;99.90;;;;;;4990049;28;20170;-74
2021/12/02 01:50:39;;;;;;;;;;;4.90;99.90;;;;;;4990311;28;20140;-74
2021/12/02 01:53:08;;;;;;;;;;;4.90;99.90;;;;;;4990701;28;20067;-74
2021/12/02 01:55:42;;;;;;;;;;;4.90;99.90;;;;;;4985696;28;20158;-74
2021/12/02 01:58:15;;;;;;;;;;;4.90;99.90;;;;;;4989489;28;20278;-75
2021/12/02 02:00:44;;;;;;;;;;;4.90;99.90;;;;;;4988478;28;20051;-76
2021/12/02 02:03:12;;;;;;;;;;;4.90;99.90;;;;;;4989763;28;20068;-75
2021/12/02 02:05:39;;;;;;;;;;;4.90;99.90;;;;;;4999695;28;20105;-75
2021/12/02 02:08:13;;;;;;;;;;;4.90;99.90;;;;;;4990776;28;20068;-75
2021/12/02 02:10:41;;;;;;;;;;;4.90;99.90;;;;;;4991572;28;20068;-74
2021/12/02 02:13:09;;;;;;;;;;;4.90;99.90;;;;;;4989929;28;20067;-75
2021/12/02 02:15:37;;;;;;;;;;;4.90;99.90;;;;;;4993887;28;20066;-75
2021/12/02 02:18:08;;;;;;;;;;;4.90;99.90;;;;;;4988670;28;20060;-75
2021/12/02 02:20:41;;;;;;;;;;;4.80;99.90;;;;;;4988749;28;20074;-75
2021/12/02 02:23:11;;;;;;;;;;;4.80;99.90;;;;;;4985724;28;20167;-74
2021/12/02 02:25:38;;;;;;;;;;;4.80;99.90;;;;;;4998215;28;21026;-74
2021/12/02 02:28:05;;;;;;;;;;;4.80;99.90;;;;;;4984347;28;20154;-74
2021/12/02 02:30:33;;;;;;;;;;;4.80;99.90;;;;;;4988109;28;21170;-75
2021/12/02 02:33:00;;;;;;;;;;;4.80;99.90;;;;;;4989454;28;20066;-75
2021/12/02 02:35:27;;;;;;;;;;;4.80;99.90;;;;;;4988139;28;20097;-74
2021/12/02 02:37:56;;;;;;;;;;;4.70;99.90;;;;;;4990400;28;21079;-75
2021/12/02 02:40:24;;;;;;;;;;;4.70;99.90;;;;;;4986345;28;20074;-75
2021/12/02 02:42:57;;;;;;;;;;;4.70;99.90;;;;;;4988598;28;21156;-75
2021/12/02 02:45:24;;;;;;;;;;;4.70;99.90;;;;;;4978106;28;20281;-74
2021/12/02 02:47:51;;;;;;;;;;;4.70;99.90;;;;;;4991133;28;20178;-73
2021/12/02 02:50:18;;;;;;;;;;;4.70;99.90;;;;;;4988075;28;20171;-74
2021/12/02 02:52:47;;;;;;;;;;;4.70;99.90;;;;;;4987067;28;21208;-75
2021/12/02 02:55:21;;;;;;;;;;;4.70;99.90;;;;;;5003714;28;20076;-74
2021/12/02 02:57:55;;;;;;;;;;;4.70;99.90;;;;;;4988014;28;20067;-74
2021/12/02 03:00:30;;;;;;;;;;;4.60;99.90;;;;;;4990915;28;20068;-73
2021/12/02 03:03:02;;;;;;;;;;;4.60;99.90;;;;;;4988448;28;20074;-74
2021/12/02 03:05:37;;;;;;;;;;;4.60;99.90;;;;;;4987501;28;20170;-74
2021/12/02 03:08:13;;;;;;;;;;;4.60;99.90;;;;;;4988564;28;20075;-74
2021/12/02 03:10:45;;;;;;;;;;;4.50;99.90;;;;;;4998380;28;20067;-76
2021/12/02 03:13:15;;;;;;;;;;;4.50;99.90;;;;;;4988854;28;21192;-75
2021/12/02 03:18:28;;;;;;;;;;;4.50;99.90;;;;;;4994915;28;20059;-74
2021/12/02 03:20:55;;;;;;;;;;;4.40;99.90;;;;;;4990680;28;20061;-76
2021/12/02 03:23:23;;;;;;;;;;;4.40;99.90;;;;;;4995575;28;21236;-73
2021/12/02 03:25:52;;;;;;;;;;;4.40;99.90;;;;;;4991473;28;21254;-72
2021/12/02 03:28:19;;;;;;;;;;;4.40;99.90;;;;;;4983890;28;20153;-73
2021/12/02 03:30:46;;;;;;;;;;;4.40;99.90;;;;;;4990855;28;20179;-73
2021/12/02 03:33:13;;;;;;;;;;;4.40;99.90;;;;;;4990309;28;20060;-73
2021/12/02 03:35:40;;;;;;;;;;;4.40;99.90;;;;;;4986268;28;20192;-73
2021/12/02 03:38:08;;;;;;;;;;;4.40;99.90;;;;;;5002215;28;20162;-73
2021/12/02 03:40:35;;;;;;;;;;;4.40;99.90;;;;;;4987772;28;20074;-74
2021/12/02 03:43:03;;;;;;;;;;;4.30;99.90;;;;;;4992181;28;20059;-73
2021/12/02 03:45:32;;;;;;;;;;;4.30;99.90;;;;;;4999054;28;20068;-74
2021/12/02 03:48:00;;;;;;;;;;;4.30;99.90;;;;;;4991708;28;20059;-74
2021/12/02 03:50:27;;;;;;;;;;;4.30;99.90;;;;;;4992636;28;20464;-74
2021/12/02 03:52:54;;;;;;;;;;;4.30;99.90;;;;;;4987911;28;20100;-74
2021/12/02 03:55:21;;;;;;;;;;;4.30;99.90;;;;;;4988136;28;21119;-75
2021/12/02 03:57:48;;;;;;;;;;;4.30;99.90;;;;;;4986912;28;20086;-72
2021/12/02 04:00:17;;;;;;;;;;;4.30;99.90;;;;;;4988241;28;20069;-74
2021/12/02 04:02:44;;;;;;;;;;;4.30;99.90;;;;;;5007166;28;20076;-75
2021/12/02 04:05:12;;;;;;;;;;;4.40;99.90;;;;;;4990422;28;21064;-74
2021/12/02 04:07:39;;;;;;;;;;;4.40;99.90;;;;;;4986573;28;20148;-73
2021/12/02 04:10:07;;;;;;;;;;;4.30;99.90;;;;;;4988156;28;20068;-75
2021/12/02 04:12:45;;;;;;;;;;;4.30;99.90;;;;;;4987215;28;20094;-75
2021/12/02 04:15:16;;;;;;;;;;;4.30;99.90;;;;;;4993617;28;20273;-74
2021/12/02 04:17:45;;;;;;;;;;;4.30;99.90;;;;;;4985904;28;20208;-73
2021/12/02 04:20:13;;;;;;;;;;;4.30;99.90;;;;;;4985212;28;21215;-74
2021/12/02 04:22:40;;;;;;;;;;;4.30;99.90;;;;;;4994004;28;21136;-74
2021/12/02 04:25:07;;;;;;;;;;;4.20;99.90;;;;;;4986835;28;20483;-74
2021/12/02 04:27:35;;;;;;;;;;;4.20;99.90;;;;;;4985819;28;20158;-76
2021/12/02 04:30:02;;;;;;;;;;;4.20;99.90;;;;;;4988048;28;20084;-73
2021/12/02 04:32:29;;;;;;;;;;;4.20;99.90;;;;;;4996747;28;20058;-72
2021/12/02 04:34:58;;;;;;;;;;;4.20;99.90;;;;;;4987910;28;20060;-75
2021/12/02 04:37:25;;;;;;;;;;;4.10;99.90;;;;;;4986398;28;20150;-75
2021/12/02 04:39:52;;;;;;;;;;;4.10;99.90;;;;;;4986176;28;21130;-74
2021/12/02 04:42:19;;;;;;;;;;;4.10;99.90;;;;;;4982883;28;20077;-74
2021/12/02 04:44:46;;;;;;;;;;;4.00;99.90;;;;;;4982711;28;20209;-74
2021/12/02 04:47:14;;;;;;;;;;;3.90;99.90;;;;;;4985910;28;20108;-76
2021/12/02 04:49:41;;;;;;;;;;;3.80;99.90;;;;;;4986304;28;20070;-74
2021/12/02 04:52:10;;;;;;;;;;;3.70;99.90;;;;;;4988252;28;20067;-74
2021/12/02 04:54:38;;;;;;;;;;;3.70;99.90;;;;;;4990308;28;20076;-74
2021/12/02 04:57:05;;;;;;;;;;;3.70;99.90;;;;;;4985580;28;20069;-74
2021/12/02 04:59:32;;;;;;;;;;;3.70;99.90;;;;;;4985897;28;20150;-73
2021/12/02 05:01:59;;;;;;;;;;;3.80;99.90;;;;;;4986649;28;20068;-74
2021/12/02 05:04:27;;;;;;;;;;;3.80;99.90;;;;;;4985911;28;20103;-75
2021/12/02 05:06:54;;;;;;;;;;;3.80;99.90;;;;;;4994975;28;20059;-75
2021/12/02 05:09:22;;;;;;;;;;;3.80;99.90;;;;;;5000815;28;21307;-76
2021/12/02 05:11:50;;;;;;;;;;;3.80;99.90;;;;;;5001176;28;20099;-75
2021/12/02 05:14:17;;;;;;;;;;;3.80;99.90;;;;;;5000422;28;21267;-75
2021/12/02 05:16:44;;;;;;;;;;;3.80;99.90;;;;;;4998940;28;20108;-75
2021/12/02 05:19:11;;;;;;;;;;;3.90;99.90;;;;;;4994775;28;20075;-74
2021/12/02 05:21:38;;;;;;;;;;;3.90;99.90;;;;;;4986244;28;20107;-75
2021/12/02 05:24:06;;;;;;;;;;;3.90;99.90;;;;;;4986202;28;20068;-74
2021/12/02 05:26:35;;;;;;;;;;;3.90;99.90;;;;;;4986962;28;20096;-75
2021/12/02 05:29:02;;;;;;;;;;;3.90;99.90;;;;;;4986206;28;20069;-75
2021/12/02 05:31:29;;;;;;;;;;;3.90;99.90;;;;;;4989430;28;20073;-74
2021/12/02 05:33:56;;;;;;;;;;;3.90;99.90;;;;;;4985811;28;20060;-74
2021/12/02 05:36:24;;;;;;;;;;;3.90;99.90;;;;;;4988080;28;21095;-74
2021/12/02 05:38:51;;;;;;;;;;;4.00;99.90;;;;;;4985857;28;20397;-75
2021/12/02 05:41:18;;;;;;;;;;;4.00;99.90;;;;;;4984898;28;20157;-75
2021/12/02 05:43:47;;;;;;;;;;;4.00;99.90;;;;;;4989744;28;20068;-75
2021/12/02 05:46:14;;;;;;;;;;;4.00;99.90;;;;;;4987972;28;20105;-75
2021/12/02 05:48:41;;;;;;;;;;;3.90;99.90;;;;;;4984861;28;21900;-74
2021/12/02 05:51:08;;;;;;;;;;;4.00;99.90;;;;;;4984862;28;20068;-74
2021/12/02 05:53:35;;;;;;;;;;;3.90;99.90;;;;;;4985902;28;20186;-74
2021/12/02 05:56:03;;;;;;;;;;;3.90;99.90;;;;;;4985615;28;20068;-75
2021/12/02 05:58:30;;;;;;;;;;;3.90;99.90;;;;;;4987574;28;20183;-74
2021/12/02 06:00:59;;;;;;;;;;;3.90;99.90;;;;;;4985179;28;21039;-74
2021/12/02 06:03:26;;;;;;;;;;;3.90;99.90;;;;;;4978379;28;20082;-75
2021/12/02 06:05:53;;;;;;;;;;;3.90;99.90;;;;;;4987960;28;20157;-73
2021/12/02 06:08:20;;;;;;;;;;;3.80;99.90;;;;;;4986089;28;21111;-75
2021/12/02 06:10:47;;;;;;;;;;;3.90;99.90;;;;;;4979993;28;20077;-74
2021/12/02 06:13:16;;;;;;;;;;;3.90;99.90;;;;;;4984611;28;20254;-74
2021/12/02 06:15:43;;;;;;;;;;;3.80;99.90;;;;;;4984592;28;20085;-73
2021/12/02 06:18:12;;;;;;;;;;;3.80;99.90;;;;;;4984972;28;20060;-73
2021/12/02 06:20:39;;;;;;;;;;;3.70;99.90;;;;;;4987415;28;20088;-74
2021/12/02 06:23:06;;;;;;;;;;;3.60;99.90;;;;;;4988933;28;20068;-74
2021/12/02 06:25:45;;;;;;;;;;;3.60;99.90;;;;;;4984526;28;20179;-74
2021/12/02 06:28:13;;;;;;;;;;;3.50;99.90;;;;;;4985355;28;20165;-74
2021/12/02 06:30:40;;;;;;;;;;;3.50;99.90;;;;;;4985971;28;20097;-73
2021/12/02 06:33:07;;;;;;;;;;;3.40;99.90;;;;;;4985350;28;21250;-73
2021/12/02 06:35:36;;;;;;;;;;;3.50;99.90;;;;;;4987209;28;20179;-73
2021/12/02 06:38:03;;;;;;;;;;;3.50;99.90;;;;;;4985911;28;20077;-72
2021/12/02 06:40:31;;;;;;;;;;;3.50;99.90;;;;;;4989020;28;20084;-74
2021/12/02 06:42:58;;;;;;;;;;;3.50;99.90;;;;;;4991114;28;20135;-73
2021/12/02 06:45:26;;;;;;;;;;;3.50;99.90;;;;;;4991557;28;20091;-74
2021/12/02 06:47:57;;;;;;;;;;;3.50;99.90;;;;;;4988981;28;21073;-74
2021/12/02 06:50:25;;;;;;;;;;;3.50;99.90;;;;;;5006322;28;20066;-74
2021/12/02 06:52:54;;;;;;;;;;;3.50;99.90;;;;;;4988895;28;20067;-75
2021/12/02 06:55:21;;;;;;;;;;;3.50;99.90;;;;;;5004069;28;20226;-78
2021/12/02 06:57:48;;;;;;;;;;;3.50;99.90;;;;;;5003917;28;20074;-72
2021/12/02 07:00:16;;;;;;;;;;;3.50;99.90;;;;;;4989397;28;20074;-74
2021/12/02 07:02:44;;;;;;;;;;;3.50;99.90;;;;;;4991160;28;20098;-74
2021/12/02 07:05:12;;;;;;;;;;;3.50;99.90;;;;;;4994057;28;20097;-73
2021/12/02 07:07:40;;;;;;;;;;;3.50;99.90;;;;;;4989787;28;20100;-76
2021/12/02 07:10:09;;;;;;;;;;;3.50;99.90;;;;;;4988757;28;20069;-74
2021/12/02 07:12:39;;;;;;;;;;;3.50;99.90;;;;;;4988414;28;20075;-74
2021/12/02 07:15:10;;;;;;;;;;;3.50;99.90;;;;;;4988819;28;20082;-75
2021/12/02 07:17:37;;;;;;;;;;;3.40;99.90;;;;;;4986183;28;21157;-77
2021/12/02 07:20:05;;;;;;;;;;;3.40;99.90;;;;;;4987562;28;20091;-75
2021/12/02 07:22:32;;;;;;;;;;;3.40;99.90;;;;;;4988388;28;20092;-74
2021/12/02 07:25:00;;;;;;;;;;;3.40;99.90;;;;;;4988305;28;20084;-74
2021/12/02 07:27:29;;;;;;;;;;;3.30;99.90;;;;;;4987321;28;20465;-74
2021/12/02 07:29:56;;;;;;;;;;;3.30;99.90;;;;;;4987326;28;20105;-74
2021/12/02 07:32:25;;;;;;;;;;;3.10;99.90;;;;;;4987642;28;20060;-74
2021/12/02 07:34:53;;;;;;;;;;;3.00;99.90;;;;;;4980120;28;20085;-75
2021/12/02 07:37:21;;;;;;;;;;;2.80;99.90;;;;;;4985591;28;20336;-76
2021/12/02 07:39:50;;;;;;;;;;;2.60;99.90;;;;;;4988955;28;20060;-75
2021/12/02 07:42:17;;;;;;;;;;;2.50;99.90;;;;;;4987270;28;20092;-75
2021/12/02 07:44:46;;;;;;;;;;;2.50;99.90;;;;;;4986053;28;20075;-74
2021/12/02 07:47:19;;;;;;;;;;;2.50;99.90;;;;;;4985697;28;20153;-74
2021/12/02 07:49:49;;;;;;;;;;;2.50;99.90;;;;;;4985828;28;20231;-74
2021/12/02 07:52:18;;;;;;;;;;;2.50;99.90;;;;;;4985274;28;20221;-74
2021/12/02 07:54:46;;;;;;;;;;;2.50;99.90;;;;;;4987980;28;20130;-74
2021/12/02 07:57:14;;;;;;;;;;;2.50;99.90;;;;;;4979179;28;20741;-75
2021/12/02 07:59:42;;;;;;;;;;;2.50;99.90;;;;;;4980959;28;21465;-76
2021/12/02 08:02:14;;;;;;;;;;;2.60;99.90;;;;;;4988327;28;21255;-75
2021/12/02 08:04:42;;;;;;;;;;;2.60;99.90;;;;;;4987285;28;20205;-74
2021/12/02 08:07:09;;;;;;;;;;;2.60;99.90;;;;;;4986954;28;20091;-75
2021/12/02 08:09:36;;;;;;;;;;;2.60;99.90;;;;;;4990084;28;21186;-76
2021/12/02 08:12:04;;;;;;;;;;;2.60;99.90;;;;;;4988745;28;21119;-76
2021/12/02 08:14:31;;;;;;;;;;;2.60;99.90;;;;;;4986741;28;21300;-75
2021/12/02 08:16:58;;;;;;;;;;;2.70;99.90;;;;;;4987103;28;20216;-74
2021/12/02 08:19:26;;;;;;;;;;;2.70;99.90;;;;;;4989723;28;20068;-75
2021/12/02 08:21:54;;;;;;;;;;;2.70;99.90;;;;;;4987275;28;20170;-75
2021/12/02 08:24:23;;;;;;;;;;;2.70;99.90;;;;;;4983322;28;20211;-75
2021/12/02 08:26:50;;;;;;;;;;;2.70;99.90;;;;;;4982636;28;20099;-75
2021/12/02 08:29:18;;;;;;;;;;;2.70;99.90;;;;;;4986300;28;21100;-74
2021/12/02 08:31:45;;;;;;;;;;;2.70;99.90;;;;;;4986334;28;20075;-75
2021/12/02 08:34:12;;;;;;;;;;;2.70;99.90;;;;;;4986508;28;21040;-75
2021/12/02 08:36:46;;;;;;;;;;;2.70;99.90;;;;;;4986086;28;21010;-75
2021/12/02 08:39:17;;;;;;;;;;;2.70;99.90;;;;;;4988072;28;20267;-74
2021/12/02 08:41:47;;;;;;;;;;;2.70;99.90;;;;;;4988613;28;20244;-75
2021/12/02 08:44:14;;;;;;;;;;;2.70;99.90;;;;;;4990797;28;20067;-76
2021/12/02 08:46:42;;;;;;;;;;;2.70;99.90;;;;;;4989371;28;20208;-75
2021/12/02 08:49:09;;;;;;;;;;;2.70;99.90;;;;;;4987691;28;20335;-74
2021/12/02 08:51:36;;;;;;;;;;;2.80;99.90;;;;;;4987999;28;20072;-74
2021/12/02 08:54:05;;;;;;;;;;;2.80;99.90;;;;;;4985820;28;20068;-77
2021/12/02 08:56:32;;;;;;;;;;;2.90;99.90;;;;;;4980736;28;20168;-74
2021/12/02 08:58:59;;;;;;;;;;;3.00;99.90;;;;;;4985599;28;20076;-73
2021/12/02 09:01:28;;;;;;;;;;;3.00;99.90;;;;;;4986504;28;21100;-75
2021/12/02 09:03:55;;;;;;;;;;;3.10;99.90;;;;;;4985081;28;20084;-74
2021/12/02 09:06:23;;;;;;;;;;;3.20;99.90;;;;;;4990125;28;20068;-72
2021/12/02 09:08:51;;;;;;;;;;;3.20;99.90;;;;;;4985823;28;20161;-73
2021/12/02 09:11:19;;;;;;;;;;;3.10;99.90;;;;;;4984174;28;21172;-73
2021/12/02 09:13:47;;;;;;;;;;;3.10;99.90;;;;;;5001284;28;20070;-74
2021/12/02 09:16:14;;;;;;;;;;;3.10;99.90;;;;;;4986091;28;21093;-73
2021/12/02 09:18:42;;;;;;;;;;;3.10;99.90;;;;;;4984479;28;21180;-72
2021/12/02 09:21:09;;;;;;;;;;;2.90;99.90;;;;;;4984591;28;20253;-72
2021/12/02 09:23:36;;;;;;;;;;;2.80;99.90;;;;;;4987553;28;21088;-72
2021/12/02 09:26:03;;;;;;;;;;;2.80;99.90;;;;;;4983619;28;20073;-74
2021/12/02 09:28:32;;;;;;;;;;;2.80;99.90;;;;;;4976269;28;20286;-73
2021/12/02 09:30:59;;;;;;;;;;;2.70;99.90;;;;;;4987152;28;20170;-73
2021/12/02 09:33:26;;;;;;;;;;;2.70;99.90;;;;;;4987260;28;20077;-75
2021/12/02 09:35:53;;;;;;;;;;;2.60;99.90;;;;;;4985431;28;20135;-74
2021/12/02 09:38:21;;;;;;;;;;;2.50;99.90;;;;;;4999002;28;20662;-73
2021/12/02 09:40:48;;;;;;;;;;;2.60;99.90;;;;;;4985341;28;20104;-74
2021/12/02 09:43:16;;;;;;;;;;;2.70;99.90;;;;;;4982014;28;20141;-74
2021/12/02 09:45:45;;;;;;;;;;;2.70;99.90;;;;;;4984960;28;20096;-74
2021/12/02 09:48:12;;;;;;;;;;;2.70;99.90;;;;;;4991374;28;21179;-73
2021/12/02 09:50:50;;;;;;;;;;;2.70;99.90;;;;;;4984465;28;20061;-75
2021/12/02 09:53:21;;;;;;;;;;;2.60;99.90;;;;;;4986081;28;20069;-74
2021/12/02 09:55:52;;;;;;;;;;;2.70;99.90;;;;;;4983753;28;20260;-72
2021/12/02 09:58:22;;;;;;;;;;;2.90;99.90;;;;;;4998517;28;21034;-74
2021/12/02 10:00:57;;;;;;;;;;;3.20;99.90;;;;;;4995147;28;20068;-73
2021/12/02 10:03:32;;;;;;;;;;;3.40;99.90;;;;;;4997824;28;20084;-73
2021/12/02 10:06:03;;;;;;;;;;;3.50;99.90;;;;;;4988313;28;20256;-75
2021/12/02 10:08:32;;;;;;;;;;;3.60;99.90;;;;;;4986082;28;20061;-75
2021/12/02 10:11:01;;;;;;;;;;;3.70;99.90;;;;;;4976705;28;20095;-73
2021/12/02 10:13:33;;;;;;;;;;;3.80;99.90;;;;;;4988636;28;20076;-74
2021/12/02 10:16:06;;;;;;;;;;;3.70;99.90;;;;;;4990733;28;20059;-72
2021/12/02 10:18:48;;;;;;;;;;;3.60;99.90;;;;;;4989876;28;20076;-74
2021/12/02 10:21:20;;;;;;;;;;;3.70;99.90;;;;;;4985741;28;21168;-74
2021/12/02 10:23:47;;;;;;;;;;;3.80;99.90;;;;;;4988632;28;20061;-74
2021/12/02 10:26:18;;;;;;;;;;;3.90;99.90;;;;;;4988811;28;20083;-74
2021/12/02 10:28:47;;;;;;;;;;;4.20;99.90;;;;;;4991648;28;21128;-74
2021/12/02 10:31:20;;;;;;;;;;;4.80;99.90;;;;;;4987978;28;20092;-75
2021/12/02 10:33:50;;;;;;;;;;;7.40;99.90;;;;;;4989101;28;21069;-76
2021/12/02 10:36:25;;;;;;;;;;;9.80;99.90;;;;;;4987883;28;20133;-77
2021/12/02 10:38:52;;;;;;;;;;;9.40;99.90;;;;;;4984270;28;20060;-73
2021/12/02 10:41:21;;;;;;;;;;;7.80;99.90;;;;;;4989492;28;20082;-76
2021/12/02 10:44:23;;;;;;;;;;;6.30;99.90;;;;;;4986561;28;21076;-75
2021/12/02 10:46:57;;;;;;;;;;;5.00;99.90;;;;;;4926352;28;20329;-73
2021/12/02 10:49:24;;;;;;;;;;;4.90;99.90;;;;;;4922293;28;20105;-73
2021/12/02 10:51:53;;;;;;;;;;;4.60;99.90;;;;;;4964216;28;21132;-73
2021/12/02 10:54:21;;;;;;;;;;;4.20;99.90;;;;;;5001328;28;21140;-74
2021/12/02 10:56:50;;;;;;;;;;;4.00;99.90;;;;;;4984599;28;20199;-73
2021/12/02 10:59:25;;;;;;;;;;;4.20;99.90;;;;;;4987557;28;20077;-72
2021/12/02 11:01:53;;;;;;;;;;;4.40;99.90;;;;;;4984931;28;20069;-73
2021/12/02 11:04:22;;;;;;;;;;;4.90;99.90;;;;;;4986873;28;20076;-73
2021/12/02 11:06:50;;;;;;;;;;;5.50;99.90;;;;;;4985166;28;20083;-73
2021/12/02 11:09:27;;;;;;;;;;;6.00;99.90;;;;;;5000258;28;20296;-75
2021/12/02 11:12:22;;;;;;;;;;;6.50;99.90;;;;;;4986888;28;20066;-73
2021/12/02 11:15:00;;;;;;;;;;;5.90;99.90;;;;;;4989081;28;20077;-73
2021/12/02 11:17:30;;;;;;;;;;;5.50;99.90;;;;;;4992910;28;21158;-76
2021/12/02 11:20:00;;;;;;;;;;;5.00;99.90;;;;;;4987901;28;20173;-73
2021/12/02 11:22:28;;;;;;;;;;;4.70;99.90;;;;;;4987225;28;20069;-74
2021/12/02 11:24:55;;;;;;;;;;;4.50;99.90;;;;;;4987785;28;20174;-74
2021/12/02 11:27:23;;;;;;;;;;;4.60;99.90;;;;;;4987848;28;21234;-74
2021/12/02 11:29:55;;;;;;;;;;;4.50;99.90;;;;;;4984054;28;20068;-74
2021/12/02 11:32:23;;;;;;;;;;;4.50;99.90;;;;;;4990828;28;20082;-76
2021/12/02 11:34:58;;;;;;;;;;;4.40;99.90;;;;;;4988781;28;20069;-74
2021/12/02 11:37:27;;;;;;;;;;;4.50;99.90;;;;;;4984069;28;20084;-74
2021/12/02 11:39:55;;;;;;;;;;;4.40;99.90;;;;;;4987162;28;20068;-73
2021/12/02 11:42:22;;;;;;;;;;;4.40;99.90;;;;;;4983886;28;20060;-74
2021/12/02 11:44:50;;;;;;;;;;;4.40;99.90;;;;;;4988191;28;20068;-73
2021/12/02 11:47:17;;;;;;;;;;;4.40;99.90;;;;;;4980038;28;20060;-73
2021/12/02 11:49:44;;;;;;;;;;;4.30;99.90;;;;;;4982939;28;21105;-74
2021/12/02 11:52:11;;;;;;;;;;;4.20;99.90;;;;;;4983033;28;21138;-72
2021/12/02 11:54:40;;;;;;;;;;;4.10;99.90;;;;;;4991389;28;20068;-74
2021/12/02 11:57:07;;;;;;;;;;;3.90;99.90;;;;;;4986819;28;20085;-74
2021/12/02 11:59:34;;;;;;;;;;;3.80;99.90;;;;;;4984652;28;20101;-75
2021/12/02 12:02:02;;;;;;;;;;;3.80;99.90;;;;;;4985172;28;21161;-74
2021/12/02 12:04:29;;;;;;;;;;;3.80;99.90;;;;;;4987970;28;20052;-72
2021/12/02 12:07:09;;;;;;;;;;;3.90;99.90;;;;;;4987788;28;21151;-72
2021/12/02 12:09:36;;;;;;;;;;;3.90;99.90;;;;;;4986893;28;20179;-74
2021/12/02 12:12:05;;;;;;;;;;;4.00;99.90;;;;;;4988696;28;20085;-74
2021/12/02 12:14:37;;;;;;;;;;;4.10;99.90;;;;;;4987007;28;20074;-73
2021/12/02 12:17:05;;;;;;;;;;;4.00;99.90;;;;;;4987343;28;20066;-74
2021/12/02 12:19:33;;;;;;;;;;;3.80;99.90;;;;;;4989750;28;20104;-73
2021/12/02 12:22:02;;;;;;;;;;;3.80;99.90;;;;;;4986828;28;20068;-74
2021/12/02 12:24:40;;;;;;;;;;;3.70;99.90;;;;;;4988910;28;20051;-73
2021/12/02 12:27:12;;;;;;;;;;;3.60;99.90;;;;;;4987911;28;20060;-74
2021/12/02 12:29:40;;;;;;;;;;;3.50;99.90;;;;;;4992170;28;21085;-73
2021/12/02 12:32:14;;;;;;;;;;;3.50;99.90;;;;;;4990337;28;20170;-73
2021/12/02 12:34:48;;;;;;;;;;;3.50;99.90;;;;;;4982655;28;21006;-73
2021/12/02 12:37:46;;;;;;;;;;;3.50;99.90;;;;;;4989479;28;21182;-73
2021/12/02 12:40:14;;;;;;;;;;;3.60;99.90;;;;;;4990478;28;21204;-73
2021/12/02 12:42:44;;;;;;;;;;;3.50;99.90;;;;;;4970481;28;20092;-73
2021/12/02 12:45:12;;;;;;;;;;;3.40;99.90;;;;;;4980424;28;20152;-76
2021/12/02 12:47:46;;;;;;;;;;;3.30;99.90;;;;;;4983381;28;20067;-73
2021/12/02 12:50:38;;;;;;;;;;;3.30;99.90;;;;;;4977928;28;20313;-73
2021/12/02 12:53:36;;;;;;;;;;;3.30;99.90;;;;;;4993085;28;20140;-74
2021/12/02 12:56:08;;;;;;;;;;;3.30;99.90;;;;;;4940940;28;20068;-73
2021/12/02 12:58:40;;;;;;;;;;;3.40;99.90;;;;;;4978117;28;20060;-73
2021/12/02 13:01:19;;;;;;;;;;;3.60;99.90;;;;;;4980205;28;20263;-73
2021/12/02 13:04:04;;;;;;;;;;;3.70;99.90;;;;;;4988310;28;20068;-73
2021/12/02 13:06:33;;;;;;;;;;;3.70;99.90;;;;;;4976810;28;21048;-74
2021/12/02 13:09:02;;;;;;;;;;;3.70;99.90;;;;;;4980721;28;20116;-70
2021/12/02 13:11:31;;;;;;;;;;;3.80;99.90;;;;;;4986767;28;20059;-70
2021/12/02 13:14:05;;;;;;;;;;;3.90;99.90;;;;;;4989998;28;20067;-76
2021/12/02 13:16:34;;;;;;;;;;;4.90;99.90;;;;;;4988494;28;20060;-70
2021/12/02 13:19:03;;;;;;;;;;;6.50;99.90;;;;;;4990181;28;20141;-70
2021/12/02 13:21:35;;;;;;;;;;;7.70;99.90;;;;;;4987467;28;20069;-70
2021/12/02 13:24:04;;;;;;;;;;;6.60;99.90;;;;;;4981647;28;20226;-70
2021/12/02 13:26:36;;;;;;;;;;;5.60;99.90;;;;;;4986915;28;20131;-76
2021/12/02 13:29:06;;;;;;;;;;;5.10;99.90;;;;;;4988287;28;20075;-74
2021/12/02 13:31:34;;;;;;;;;;;4.70;99.90;;;;;;4987829;28;20077;-74
2021/12/02 13:34:03;;;;;;;;;;;4.40;99.90;;;;;;4990019;28;20084;-76
2021/12/02 13:36:36;;;;;;;;;;;4.20;99.90;;;;;;4985640;28;20149;-74
2021/12/02 13:39:06;;;;;;;;;;;4.10;99.90;;;;;;4993101;28;20051;-75
2021/12/02 13:41:36;;;;;;;;;;;4.00;99.90;;;;;;4987761;28;20058;-73
2021/12/02 13:44:07;;;;;;;;;;;3.80;99.90;;;;;;4988013;28;20066;-72
2021/12/02 13:46:36;;;;;;;;;;;3.80;99.90;;;;;;4988508;28;20101;-73
2021/12/02 13:49:11;;;;;;;;;;;3.70;99.90;;;;;;4987866;28;20092;-73
2021/12/02 13:54:25;;;;;;;;;;;3.70;99.90;;;;;;4989558;28;21059;-76
2021/12/02 13:56:52;;;;;;;;;;;3.70;99.90;;;;;;4988926;28;21280;-75
2021/12/02 13:59:24;;;;;;;;;;;3.70;99.90;;;;;;4987824;28;20091;-76
2021/12/02 14:01:53;;;;;;;;;;;3.70;99.90;;;;;;4990185;28;20098;-75
2021/12/02 14:04:23;;;;;;;;;;;3.70;99.90;;;;;;4989919;28;21190;-72
2021/12/02 14:06:50;;;;;;;;;;;3.70;99.90;;;;;;4986389;28;20096;-77
2021/12/02 14:09:18;;;;;;;;;;;3.60;99.90;;;;;;4987706;28;21124;-74
2021/12/02 14:11:46;;;;;;;;;;;3.60;99.90;;;;;;4989451;28;20288;-73
2021/12/02 14:14:16;;;;;;;;;;;3.60;99.90;;;;;;4985603;28;20150;-74
2021/12/02 14:16:45;;;;;;;;;;;3.80;99.90;;;;;;4987498;28;20118;-74
2021/12/02 14:19:13;;;;;;;;;;;3.80;99.90;;;;;;4982814;28;20312;-74
2021/12/02 14:21:40;;;;;;;;;;;3.90;99.90;;;;;;4981059;28;20272;-74
2021/12/02 14:24:07;;;;;;;;;;;3.90;99.90;;;;;;4987989;28;20110;-74
2021/12/02 14:26:35;;;;;;;;;;;3.90;99.90;;;;;;4990984;28;20076;-75
2021/12/02 14:29:02;;;;;;;;;;;3.80;99.90;;;;;;4987430;28;21130;-72
2021/12/02 14:31:30;;;;;;;;;;;3.80;99.90;;;;;;4986226;28;20387;-74
2021/12/02 14:34:00;;;;;;;;;;;3.70;99.90;;;;;;4987262;28;20105;-74
2021/12/02 14:36:28;;;;;;;;;;;3.70;99.90;;;;;;4984176;28;20190;-74
2021/12/02 14:39:02;;;;;;;;;;;3.70;99.90;;;;;;4985669;28;21237;-75
2021/12/02 14:41:31;;;;;;;;;;;3.60;99.90;;;;;;4986189;28;20068;-74
2021/12/02 14:44:01;;;;;;;;;;;3.60;99.90;;;;;;4995514;28;20162;-75
2021/12/02 14:46:29;;;;;;;;;;;3.60;99.90;;;;;;4987643;28;20069;-74
2021/12/02 14:49:05;;;;;;;;;;;3.50;99.90;;;;;;4986275;28;20083;-74
2021/12/02 14:51:43;;;;;;;;;;;3.50;99.90;;;;;;4981865;28;20082;-73